Time;durP1;ratioP1;P1;durP2;ratioP2;P2;SDS_P1;SDS_P2;PMS_P1;PMS_P2;Temp;Humidity;BMP_temperature;BMP_pressure;BME280_temperature;BME280_humidity;BME280_pressure;Samples;Min_cycle;Max_cycle;Signal;HPM_P1;HPM_P2
2022/04/16 03:33:17;;;;;;;28.38;11.68;;;;;;;9.45;100.00;100019.97;5052363;28;20404;-64
2022/04/16 03:35:42;;;;;;;26.42;11.95;;;;;;;9.03;100.00;100036.94;5047231;28;20068;-67
2022/04/16 03:38:08;;;;;;;20.25;11.02;;;;;;;8.95;100.00;100021.09;5047841;28;20059;-64
2022/04/16 03:40:33;;;;;;;27.70;11.40;;;;;;;8.96;100.00;100070.06;5046245;28;20129;-65
2022/04/16 03:43:01;;;;;;;22.45;10.90;;;;;;;8.80;100.00;100076.31;5046433;28;20040;-68
2022/04/16 03:45:27;;;;;;;22.77;10.93;;;;;;;8.67;100.00;100085.88;5047696;28;20029;-65
2022/04/16 03:47:54;;;;;;;20.10;11.10;;;;;;;8.51;100.00;100041.41;5046527;28;20091;-66
2022/04/16 03:50:21;;;;;;;24.17;11.48;;;;;;;8.03;100.00;100025.34;5047476;28;20056;-65
2022/04/16 03:52:48;;;;;;;26.00;11.18;;;;;;;8.72;100.00;100076.47;5047284;28;20033;-65
2022/04/16 04:00:46;;;;;;;19.52;11.15;;;;;;;8.92;100.00;100066.78;5047162;28;20152;-67
2022/04/16 04:03:12;;;;;;;17.13;10.05;;;;;;;9.13;100.00;100086.63;5047249;28;20094;-65
2022/04/16 04:05:39;;;;;;;21.15;10.68;;;;;;;8.90;100.00;100098.09;5046863;28;20112;-66
2022/04/16 04:08:05;;;;;;;15.23;10.90;;;;;;;9.51;100.00;100099.34;5047328;28;20041;-65
2022/04/16 04:10:31;;;;;;;20.13;13.32;;;;;;;9.05;100.00;100055.50;5045887;28;20410;-69
2022/04/16 04:12:56;;;;;;;19.75;12.90;;;;;;;9.12;100.00;100104.41;5047146;28;20037;-66
2022/04/16 04:15:23;;;;;;;23.85;13.73;;;;;;;9.59;100.00;100099.16;5047269;28;20036;-65
2022/04/16 04:17:49;;;;;;;31.98;15.85;;;;;;;9.31;100.00;100098.91;5047244;28;20095;-67
2022/04/16 04:20:15;;;;;;;30.05;17.90;;;;;;;9.10;100.00;100081.63;5047284;28;20450;-64
2022/04/16 04:22:40;;;;;;;29.45;19.42;;;;;;;9.23;100.00;100105.03;5046868;28;20148;-66
2022/04/16 04:25:06;;;;;;;33.92;22.98;;;;;;;9.03;100.00;100109.66;5046647;28;20049;-66
2022/04/16 04:27:31;;;;;;;37.25;24.15;;;;;;;9.14;100.00;100110.28;5046526;28;20059;-65
2022/04/16 04:29:59;;;;;;;39.35;24.50;;;;;;;8.89;100.00;100071.06;5046841;28;20026;-65
2022/04/16 04:32:25;;;;;;;32.50;23.73;;;;;;;9.15;100.00;100071.41;5046728;28;20053;-65
2022/04/16 04:34:50;;;;;;;36.30;22.85;;;;;;;9.63;100.00;100087.25;5046972;28;20033;-65
2022/04/16 04:37:16;;;;;;;32.65;21.55;;;;;;;9.16;100.00;100101.78;5045409;28;20430;-66
2022/04/16 04:39:41;;;;;;;32.15;20.77;;;;;;;9.58;100.00;100093.28;5046792;28;20029;-65
2022/04/16 04:42:06;;;;;;;29.83;19.35;;;;;;;9.66;100.00;100060.09;5046744;28;20489;-66
2022/04/16 04:44:32;;;;;;;27.48;18.73;;;;;;;9.98;100.00;100100.78;5032785;28;20029;-66
2022/04/16 04:46:57;;;;;;;22.33;17.60;;;;;;;10.34;100.00;100116.88;5033320;28;20112;-66
2022/04/16 04:49:23;;;;;;;32.17;17.45;;;;;;;10.24;100.00;100055.31;5033408;28;20034;-66
2022/04/16 04:51:48;;;;;;;28.50;18.17;;;;;;;10.45;100.00;100102.22;5033124;28;20462;-65
2022/04/16 04:54:14;;;;;;;33.33;20.13;;;;;;;9.95;100.00;100052.63;5031684;28;20048;-66
2022/04/16 04:56:40;;;;;;;40.15;23.25;;;;;;;9.97;100.00;100065.28;5031560;28;20037;-65
2022/04/16 04:59:05;;;;;;;54.30;46.60;;;;;;;9.78;100.00;100014.13;5033250;28;20518;-65
2022/04/16 05:01:31;;;;;;;97.13;86.70;;;;;;;10.48;100.00;100092.78;5033207;28;20026;-67
2022/04/16 05:03:56;;;;;;;57.42;48.88;;;;;;;10.61;100.00;100092.47;5032889;28;20025;-66
2022/04/16 05:06:21;;;;;;;35.95;25.83;;;;;;;10.96;100.00;100099.97;5033151;28;20109;-65
2022/04/16 05:08:47;;;;;;;26.02;20.58;;;;;;;11.18;100.00;100089.19;5033092;28;20160;-65
2022/04/16 05:11:13;;;;;;;23.30;15.93;;;;;;;11.27;100.00;100082.97;5064441;28;20415;-65
2022/04/16 05:13:38;;;;;;;23.00;13.70;;;;;;;11.14;100.00;100061.31;5033035;28;20025;-65
2022/04/16 05:16:04;;;;;;;18.52;12.38;;;;;;;11.48;100.00;100056.91;5032849;28;20560;-65
2022/04/16 05:18:30;;;;;;;20.25;13.23;;;;;;;11.29;100.00;100050.66;5033048;28;20013;-66
2022/04/16 05:20:55;;;;;;;27.13;13.45;;;;;;;11.99;100.00;100090.13;5031413;28;20813;-66
2022/04/16 05:23:21;;;;;;;24.17;13.45;;;;;;;12.17;100.00;100095.47;5032524;28;20035;-65
2022/04/16 05:25:46;;;;;;;22.70;14.10;;;;;;;12.86;100.00;100073.53;5031033;28;20034;-66
2022/04/16 05:28:11;;;;;;;19.33;12.90;;;;;;;12.71;100.00;100084.28;5031524;28;20052;-66
2022/04/16 05:30:54;;;;;;;21.23;12.70;;;;;;;12.37;100.00;100048.06;5032579;28;20045;-67
2022/04/16 05:36:04;;;;;;;16.10;12.07;;;;;;;13.18;100.00;100024.72;5032419;28;20539;-66
2022/04/16 05:38:30;;;;;;;20.83;12.05;;;;;;;13.22;100.00;100045.88;5032710;28;20128;-65
2022/04/16 05:40:55;;;;;;;19.02;12.38;;;;;;;13.00;100.00;99997.31;5032566;28;20033;-65
2022/04/16 05:43:21;;;;;;;22.23;12.90;;;;;;;13.36;100.00;100049.56;5030864;28;20479;-65
2022/04/16 05:45:46;;;;;;;21.60;13.02;;;;;;;13.40;100.00;100074.09;5031271;28;20033;-64
2022/04/16 05:48:12;;;;;;;15.52;11.77;;;;;;;13.48;100.00;100045.72;5031953;28;20429;-65
2022/04/16 05:50:38;;;;;;;24.88;12.48;;;;;;;13.52;100.00;100075.34;5032146;28;20029;-66
2022/04/16 05:53:09;;;;;;;15.35;11.73;;;;;;;14.21;100.00;100061.47;5032229;28;20068;-66
2022/04/16 05:55:34;;;;;;;15.98;11.48;;;;;;;14.19;100.00;100053.03;5029842;28;20418;-66
2022/04/16 05:58:01;;;;;;;17.60;10.90;;;;;;;14.27;100.00;100069.72;5032009;28;20463;-67
2022/04/16 06:00:27;;;;;;;12.57;10.85;;;;;;;14.17;100.00;100001.13;5032275;28;20030;-65
2022/04/16 06:02:53;;;;;;;15.43;10.50;;;;;;;14.84;100.00;100053.63;5030015;28;20029;-65
2022/04/16 06:05:21;;;;;;;18.40;12.13;;;;;;;14.72;100.00;100057.56;5031538;28;20411;-66
2022/04/16 06:07:46;;;;;;;20.40;11.80;;;;;;;14.70;100.00;100053.41;5031725;28;20087;-66
2022/04/16 06:10:12;;;;;;;17.90;11.07;;;;;;;14.41;100.00;100061.50;5030403;28;20029;-66
2022/04/16 06:12:37;;;;;;;17.40;12.02;;;;;;;14.82;100.00;100006.81;5030320;28;20120;-66
2022/04/16 06:15:03;;;;;;;19.80;11.45;;;;;;;14.75;100.00;100005.44;5031713;28;20175;-66
2022/04/16 06:17:29;;;;;;;19.13;11.52;;;;;;;15.13;100.00;100048.03;5031459;28;20116;-66
2022/04/16 06:19:54;;;;;;;17.15;11.52;;;;;;;15.11;100.00;100041.34;5031291;28;20065;-66
2022/04/16 06:22:20;;;;;;;16.23;11.98;;;;;;;14.74;100.00;99996.06;5031692;28;20026;-65
2022/04/16 06:24:46;;;;;;;20.70;12.07;;;;;;;15.09;100.00;100005.56;5031624;28;20085;-65
2022/04/16 06:27:12;;;;;;;17.65;10.20;;;;;;;15.15;100.00;100002.69;5031236;28;20029;-66
2022/04/16 06:29:38;;;;;;;15.20;10.77;;;;;;;15.46;100.00;100015.78;5031440;28;20019;-66
2022/04/16 06:32:04;;;;;;;15.88;10.52;;;;;;;15.53;100.00;100019.72;5029561;28;20530;-66
2022/04/16 06:34:29;;;;;;;10.82;9.00;;;;;;;15.73;100.00;100018.75;5031121;28;20136;-65
2022/04/16 06:36:55;;;;;;;17.75;10.35;;;;;;;15.96;100.00;99972.31;5031155;28;20404;-65
2022/04/16 06:39:20;;;;;;;16.02;10.20;;;;;;;16.12;100.00;100031.38;5031213;28;20021;-65
2022/04/16 06:41:46;;;;;;;17.73;9.10;;;;;;;15.80;100.00;99965.47;5029904;28;20483;-65
2022/04/16 06:44:11;;;;;;;13.50;8.07;;;;;;;16.42;98.20;100016.97;5031797;28;20102;-65
2022/04/16 06:46:36;;;;;;;11.23;7.70;;;;;;;16.38;98.37;100031.72;5063117;28;20541;-66
2022/04/16 06:49:02;;;;;;;10.98;8.07;;;;;;;16.03;100.00;99977.94;5031269;28;20036;-66
2022/04/16 06:51:29;;;;;;;19.70;8.30;;;;;;;16.57;98.34;100026.50;5029705;28;20033;-66
2022/04/16 06:53:55;;;;;;;14.18;8.07;;;;;;;16.54;98.15;100038.69;5030763;28;20029;-67
2022/04/16 06:56:20;;;;;;;13.68;8.23;;;;;;;16.46;100.00;100021.03;5029620;28;20033;-66
2022/04/16 06:58:46;;;;;;;16.90;8.40;;;;;;;16.94;93.06;100036.50;5029874;28;20028;-66
2022/04/16 07:01:11;;;;;;;13.00;8.70;;;;;;;16.97;94.01;100038.09;5030818;28;20029;-67
2022/04/16 07:03:37;;;;;;;16.02;9.43;;;;;;;17.38;89.10;99967.28;5030989;28;20026;-67
2022/04/16 07:06:02;;;;;;;15.70;8.88;;;;;;;17.69;90.21;100046.94;5030593;28;20029;-66
2022/04/16 07:08:28;;;;;;;13.02;7.90;;;;;;;17.10;93.64;100039.06;5030731;28;20487;-66
2022/04/16 07:10:53;;;;;;;17.25;8.43;;;;;;;17.29;92.06;99981.47;5030770;28;20033;-66
2022/04/16 07:13:19;;;;;;;15.07;9.07;;;;;;;17.82;92.23;100021.38;5030592;28;20041;-65
2022/04/16 07:15:45;;;;;;;15.80;8.23;;;;;;;17.68;89.69;100024.72;5030370;28;20485;-67
2022/04/16 07:18:10;;;;;;;16.95;9.18;;;;;;;16.94;95.13;100002.28;5030577;28;20035;-66
2022/04/16 07:20:36;;;;;;;12.98;9.05;;;;;;;17.10;98.37;100019.38;5030391;28;20036;-67
2022/04/16 07:23:01;;;;;;;13.50;9.10;;;;;;;16.91;100.00;100023.84;5030534;28;20029;-71
2022/04/16 07:25:26;;;;;;;14.15;10.27;;;;;;;18.09;100.00;100012.06;5030844;28;20487;-65
2022/04/16 07:27:52;;;;;;;17.02;10.07;;;;;;;18.10;94.61;99985.44;5030647;28;20027;-66
2022/04/16 07:30:17;;;;;;;17.10;9.63;;;;;;;17.78;94.67;99941.00;5030740;28;20448;-66
2022/04/16 07:32:43;;;;;;;15.63;8.15;;;;;;;17.99;88.64;100021.22;5030773;28;20053;-66
2022/04/16 07:35:09;;;;;;;14.85;7.47;;;;;;;18.74;81.79;100008.16;5030258;28;20057;-66
2022/04/16 07:37:34;;;;;;;12.85;7.55;;;;;;;18.16;83.66;99962.72;5029043;28;20036;-67
2022/04/16 07:40:00;;;;;;;9.73;7.15;;;;;;;18.59;78.00;99978.19;5030581;28;20026;-66
2022/04/16 07:42:26;;;;;;;13.85;7.35;;;;;;;17.98;78.64;99986.97;5029110;28;20038;-66
2022/04/16 07:44:52;;;;;;;11.40;7.78;;;;;;;17.88;79.64;100003.03;5030322;28;20098;-66
2022/04/16 07:47:18;;;;;;;13.60;7.70;;;;;;;17.86;84.46;100015.16;5030296;28;20426;-67
2022/04/16 07:49:43;;;;;;;10.75;7.90;;;;;;;17.55;91.36;100007.50;5030444;28;20543;-66
2022/04/16 07:52:09;;;;;;;11.55;8.02;;;;;;;17.83;91.55;99964.69;5030073;28;20051;-65
2022/04/16 07:54:34;;;;;;;15.43;8.18;;;;;;;18.06;89.34;99982.19;5062356;28;20025;-64
2022/04/16 07:57:00;;;;;;;17.52;8.75;;;;;;;18.83;84.58;99980.13;5029331;28;20388;-65
2022/04/16 07:59:25;;;;;;;15.13;7.93;;;;;;;18.00;87.94;99992.03;5031910;28;20427;-65
2022/04/16 08:01:50;;;;;;;11.60;8.02;;;;;;;19.25;83.39;100001.56;5032973;28;20022;-65
2022/04/16 08:04:16;;;;;;;14.45;8.23;;;;;;;19.80;83.73;100005.69;5032865;28;20033;-66
2022/04/16 08:06:41;;;;;;;12.95;9.38;;;;;;;19.09;82.78;99969.91;5032764;28;20477;-66
2022/04/16 08:09:07;;;;;;;13.65;9.43;;;;;;;18.36;91.13;99994.19;5031724;28;20030;-66
2022/04/16 08:11:33;;;;;;;14.05;9.75;;;;;;;18.65;95.83;99977.81;5030062;28;20044;-66
2022/04/16 08:13:58;;;;;;;12.45;9.32;;;;;;;18.77;96.52;99970.19;5028903;28;20128;-66
2022/04/16 08:16:24;;;;;;;15.15;10.02;;;;;;;18.57;96.69;99972.31;5028772;28;20112;-65
2022/04/16 08:18:49;;;;;;;17.60;9.88;;;;;;;18.64;96.84;99950.44;5031540;28;20049;-67
2022/04/16 08:21:15;;;;;;;18.00;11.25;;;;;;;18.93;95.71;99929.66;5033907;28;20025;-66
2022/04/16 08:23:54;;;;;;;19.20;12.38;;;;;;;18.84;94.71;99950.84;5033744;28;20060;-66
2022/04/16 08:26:20;;;;;;;19.55;10.23;;;;;;;19.23;93.76;99977.63;5032506;28;20112;-66
2022/04/16 08:28:45;;;;;;;14.15;8.93;;;;;;;18.95;92.28;99975.94;5032650;28;20120;-66
2022/04/16 08:31:11;;;;;;;13.65;8.38;;;;;;;19.63;87.82;99966.44;5033139;28;20026;-66
2022/04/16 08:33:36;;;;;;;9.70;7.32;;;;;;;19.42;86.95;99967.81;5065420;28;20038;-66
2022/04/16 08:36:01;;;;;;;13.30;7.53;;;;;;;19.76;86.37;99957.78;5032035;28;20033;-66
2022/04/16 08:38:27;;;;;;;14.50;8.13;;;;;;;19.79;85.12;99916.28;5033702;28;20025;-66
2022/04/16 08:40:55;;;;;;;11.02;7.60;;;;;;;19.31;86.20;99978.78;5033813;28;20441;-66
2022/04/16 08:43:20;;;;;;;13.57;7.05;;;;;;;19.13;89.10;99969.66;5033433;28;20068;-66
2022/04/16 08:45:49;;;;;;;13.18;7.72;;;;;;;19.36;90.91;99973.34;5033328;28;20075;-66
2022/04/16 08:48:15;;;;;;;11.43;6.82;;;;;;;18.49;92.82;99939.31;5033256;28;20056;-66
2022/04/16 08:50:42;;;;;;;13.57;7.47;;;;;;;18.80;90.40;99908.16;5033363;28;20057;-66
2022/04/16 08:53:08;;;;;;;12.32;6.57;;;;;;;20.36;81.59;99942.50;5032073;28;20025;-66
2022/04/16 08:55:33;;;;;;;11.85;6.55;;;;;;;20.92;80.10;99942.94;5031802;28;20033;-66
2022/04/16 08:57:59;;;;;;;12.93;6.80;;;;;;;20.52;77.66;99950.84;5033135;28;20116;-66
2022/04/16 09:00:25;;;;;;;14.85;6.65;;;;;;;19.35;80.65;99907.25;5064825;28;20037;-66
2022/04/16 09:02:56;;;;;;;10.55;6.15;;;;;;;19.66;85.08;99961.06;5033059;28;20112;-67
2022/04/16 09:05:23;;;;;;;10.73;5.82;;;;;;;19.88;80.05;99940.66;5033369;28;20041;-66
2022/04/16 09:07:51;;;;;;;14.02;6.03;;;;;;;20.56;73.60;99939.38;5031911;28;20510;-66
2022/04/16 09:10:17;;;;;;;10.73;5.38;;;;;;;20.61;71.55;99936.47;5032776;28;20030;-66
2022/04/16 09:12:44;;;;;;;9.20;6.30;;;;;;;21.10;68.02;99929.53;5032800;28;20056;-66
2022/04/16 09:15:11;;;;;;;10.80;6.18;;;;;;;21.45;66.47;99921.81;5032549;28;20033;-66
2022/04/16 09:17:38;;;;;;;12.65;5.65;;;;;;;21.55;65.71;99922.78;5033178;28;20040;-66
2022/04/16 09:20:09;;;;;;;9.77;4.90;;;;;;;20.55;64.26;99862.00;5031409;28;20040;-66
2022/04/16 09:22:37;;;;;;;11.07;5.30;;;;;;;21.52;64.70;99926.41;5031400;28;20037;-66
2022/04/16 09:25:04;;;;;;;8.52;5.70;;;;;;;22.38;61.85;99906.06;5032605;28;20029;-66
2022/04/16 09:27:45;;;;;;;14.27;5.70;;;;;;;22.37;62.32;99894.84;5032443;28;20164;-67
2022/04/16 09:30:11;;;;;;;9.95;5.18;;;;;;;22.12;61.92;99920.19;5032493;28;20030;-67
2022/04/16 09:32:46;;;;;;;9.57;5.28;;;;;;;20.68;64.19;99884.25;5032553;28;20055;-66
2022/04/16 09:35:31;;;;;;;10.73;4.93;;;;;;;22.16;62.22;99917.25;5032525;28;20069;-66
2022/04/16 09:37:59;;;;;;;11.43;4.60;;;;;;;22.33;62.27;99883.09;5032160;28;20036;-65
2022/04/16 09:40:30;;;;;;;7.47;4.75;;;;;;;21.32;63.45;99890.00;5032439;28;20048;-65
2022/04/16 09:42:57;;;;;;;14.77;5.45;;;;;;;22.11;62.09;99877.91;5032387;28;20040;-67
2022/04/16 09:45:22;;;;;;;14.93;4.97;;;;;;;22.63;60.93;99921.34;5032090;28;20499;-64
2022/04/16 09:47:50;;;;;;;8.38;4.70;;;;;;;21.98;60.24;99923.81;5030803;28;20032;-66
2022/04/16 09:50:17;;;;;;;15.82;5.28;;;;;;;22.86;62.13;99903.97;5031957;28;20510;-66
2022/04/16 09:52:43;;;;;;;11.68;6.07;;;;;;;22.80;61.95;99878.56;5030572;28;20123;-66
2022/04/16 09:55:10;;;;;;;10.68;5.78;;;;;;;22.34;63.82;99871.75;5032131;28;20516;-67
2022/04/16 09:57:39;;;;;;;14.13;7.10;;;;;;;22.99;62.38;99895.09;5031909;28;20033;-67
2022/04/16 10:00:05;;;;;;;10.75;5.80;;;;;;;23.09;62.86;99883.03;5031695;28;20175;-66
2022/04/16 10:02:31;;;;;;;10.05;5.63;;;;;;;23.02;62.09;99901.78;5031813;28;20034;-65
2022/04/16 10:04:59;;;;;;;11.52;5.80;;;;;;;23.85;59.94;99856.75;5032442;28;20051;-66
2022/04/16 10:07:25;;;;;;;9.90;5.80;;;;;;;23.48;60.24;99886.75;5030228;28;20404;-66
2022/04/16 10:09:53;;;;;;;14.13;6.30;;;;;;;24.09;59.83;99909.28;5032139;28;20026;-66
2022/04/16 10:15:02;;;;;;;9.57;6.38;;;;;;;24.58;59.00;99869.47;5031696;28;20127;-66
2022/04/16 10:17:46;;;;;;;9.90;6.28;;;;;;;24.20;58.02;99845.16;5030406;28;20043;-67
2022/04/16 10:20:18;;;;;;;11.90;5.47;;;;;;;23.21;60.01;99856.06;5031890;28;20060;-67
2022/04/16 10:22:58;;;;;;;8.63;5.78;;;;;;;23.45;60.13;99863.66;5030606;28;20514;-66
2022/04/16 10:25:35;;;;;;;9.80;5.83;;;;;;;22.72;62.26;99855.00;5063622;28;20423;-66
2022/04/16 10:28:06;;;;;;;11.15;5.68;;;;;;;24.76;59.80;99899.09;5031116;28;20030;-66
2022/04/16 10:30:49;;;;;;;12.25;5.55;;;;;;;24.09;59.20;99893.69;5031427;28;20032;-66
2022/04/16 10:33:22;;;;;;;10.98;5.25;;;;;;;23.11;59.82;99901.06;5031297;28;20058;-67
2022/04/16 10:35:57;;;;;;;11.05;5.47;;;;;;;23.82;59.57;99892.56;5030010;28;20036;-67
2022/04/16 10:38:24;;;;;;;11.13;5.00;;;;;;;23.05;59.64;99881.63;5029745;28;20408;-64
2022/04/16 10:40:58;;;;;;;7.28;4.90;;;;;;;24.10;58.17;99863.34;5030791;28;20035;-64
2022/04/16 10:43:29;;;;;;;11.10;5.70;;;;;;;24.46;57.19;99893.13;5031250;28;20037;-65
2022/04/16 10:45:56;;;;;;;9.98;5.53;;;;;;;22.62;59.87;99892.97;5030761;28;20036;-65
2022/04/16 10:48:21;;;;;;;7.60;4.65;;;;;;;22.04;60.72;99853.44;5031299;28;20479;-66
2022/04/16 10:50:48;;;;;;;9.60;5.30;;;;;;;22.59;59.21;99859.50;5029640;28;20025;-66
2022/04/16 10:53:15;;;;;;;7.00;5.40;;;;;;;23.38;57.64;99883.28;5030786;28;20049;-65
2022/04/16 10:55:48;;;;;;;10.68;5.63;;;;;;;24.03;57.16;99844.84;5031104;28;20029;-65
2022/04/16 10:58:16;;;;;;;9.55;5.13;;;;;;;23.38;58.55;99843.50;5029591;28;20492;-65
2022/04/16 11:00:45;;;;;;;7.90;4.93;;;;;;;23.63;58.42;99882.88;5029620;28;20069;-65
2022/04/16 11:03:27;;;;;;;9.32;4.50;;;;;;;24.06;58.93;99878.38;5029528;28;20034;-65
2022/04/16 11:06:13;;;;;;;7.90;4.82;;;;;;;23.66;59.52;99872.25;5062105;28;20036;-66
2022/04/16 11:08:39;;;;;;;9.45;5.78;;;;;;;23.97;57.71;99839.31;5028908;28;20469;-65
2022/04/16 11:11:05;;;;;;;12.20;5.32;;;;;;;24.12;57.89;99876.19;5030692;28;20037;-66
2022/04/16 11:13:32;;;;;;;10.00;5.30;;;;;;;23.95;58.45;99870.63;5031049;28;20454;-66
2022/04/16 11:16:03;;;;;;;9.82;4.75;;;;;;;24.05;58.51;99816.13;5029121;28;20025;-69
2022/04/16 11:18:47;;;;;;;9.82;5.15;;;;;;;23.98;57.31;99841.78;5030897;28;20060;-67
2022/04/16 11:21:24;;;;;;;13.05;5.15;;;;;;;23.93;55.97;99872.53;5029303;28;20061;-66
2022/04/16 11:23:52;;;;;;;10.43;5.65;;;;;;;23.61;55.86;99829.47;5029266;28;20091;-67
2022/04/16 11:34:38;;;;;;;8.07;4.88;;;;;;;23.28;56.40;99814.88;5030288;28;20566;-66
2022/04/16 11:37:06;;;;;;;10.13;5.38;;;;;;;23.09;56.82;99796.59;5030376;28;20117;-66
2022/04/16 11:39:32;;;;;;;9.02;5.50;;;;;;;24.11;55.58;99799.22;5029232;28;20048;-65
2022/04/16 11:41:59;;;;;;;8.52;5.72;;;;;;;23.82;55.29;99815.47;5030157;28;20495;-65
2022/04/16 11:44:50;;;;;;;8.25;5.00;;;;;;;24.51;55.68;99813.78;5030606;28;20029;-65
2022/04/16 11:47:20;;;;;;;6.75;4.90;;;;;;;25.16;54.63;99833.91;5028955;28;20029;-66
2022/04/16 11:49:52;;;;;;;9.45;5.40;;;;;;;24.03;53.66;99805.03;5030445;28;20573;-66
2022/04/16 11:52:28;;;;;;;8.85;5.13;;;;;;;24.85;52.59;99788.22;5028871;28;20116;-66
2022/04/16 11:55:06;;;;;;;8.02;5.20;;;;;;;25.82;52.95;99837.34;5034080;28;20030;-66
2022/04/16 11:57:33;;;;;;;7.25;5.25;;;;;;;25.67;52.46;99821.34;5032877;28;20033;-67
2022/04/16 12:00:08;;;;;;;11.48;5.20;;;;;;;25.14;51.18;99804.59;5034320;28;20022;-66
2022/04/16 12:02:39;;;;;;;10.13;4.90;;;;;;;24.60;52.64;99799.13;5033038;28;20116;-67
2022/04/16 12:05:16;;;;;;;8.98;5.60;;;;;;;24.85;52.28;99790.81;5034763;28;20136;-66
2022/04/16 12:07:48;;;;;;;8.70;5.32;;;;;;;24.47;52.95;99778.59;5034013;28;20124;-65
2022/04/16 12:10:15;;;;;;;9.15;5.00;;;;;;;26.10;51.80;99813.00;5033852;28;20571;-65
2022/04/16 12:12:48;;;;;;;9.05;5.18;;;;;;;25.69;51.25;99803.00;5032854;28;20025;-65
2022/04/16 12:15:28;;;;;;;8.95;5.40;;;;;;;26.21;50.34;99785.88;5033949;28;20064;-65
2022/04/16 12:18:07;;;;;;;8.88;5.45;;;;;;;25.35;50.82;99804.44;5034169;28;20052;-65
2022/04/16 12:20:33;;;;;;;11.48;4.88;;;;;;;25.39;51.29;99775.38;5033554;28;20079;-66
2022/04/16 12:23:00;;;;;;;7.97;4.97;;;;;;;25.88;50.96;99796.88;5034002;28;20438;-65
2022/04/16 12:25:26;;;;;;;13.32;5.72;;;;;;;26.32;50.26;99807.38;5034112;28;20021;-65
2022/04/16 12:27:54;;;;;;;10.00;5.28;;;;;;;26.07;49.65;99781.19;5033629;28;20040;-66
2022/04/16 12:30:25;;;;;;;8.95;5.20;;;;;;;25.99;51.33;99791.47;5033958;28;20036;-66
2022/04/16 12:32:59;;;;;;;8.80;5.03;;;;;;;25.08;51.38;99799.97;5033765;28;20081;-66
2022/04/16 12:35:26;;;;;;;7.43;5.10;;;;;;;25.09;51.29;99748.75;5033757;28;20029;-67
2022/04/16 12:37:53;;;;;;;9.20;4.95;;;;;;;25.37;49.68;99708.78;5032129;28;20060;-66
2022/04/16 12:40:19;;;;;;;11.10;5.38;;;;;;;26.11;48.55;99774.69;5032238;28;20029;-67
2022/04/16 12:42:45;;;;;;;8.00;5.20;;;;;;;25.76;50.67;99739.75;5032156;28;20099;-67
2022/04/16 12:45:10;;;;;;;9.20;5.32;;;;;;;25.59;51.33;99782.19;5031919;28;20026;-66
2022/04/16 12:47:36;;;;;;;10.35;5.28;;;;;;;25.79;51.62;99785.50;5033155;28;20403;-67
2022/04/16 12:50:01;;;;;;;9.70;5.15;;;;;;;26.19;48.65;99773.00;5033211;28;20476;-67
2022/04/16 12:52:27;;;;;;;13.60;5.20;;;;;;;26.70;48.97;99776.75;5033119;28;20411;-66
2022/04/16 12:54:52;;;;;;;9.00;5.07;;;;;;;25.53;47.96;99729.88;5033186;28;20121;-65
2022/04/16 12:57:18;;;;;;;8.73;5.40;;;;;;;25.71;48.42;99720.31;5033115;28;20025;-65
2022/04/16 12:59:43;;;;;;;10.23;5.28;;;;;;;25.36;47.80;99767.00;5033065;28;20028;-66
2022/04/16 13:02:08;;;;;;;7.63;5.30;;;;;;;25.85;48.14;99765.91;5031611;28;20037;-66
2022/04/16 13:04:34;;;;;;;10.55;6.65;;;;;;;25.55;48.95;99739.16;5031308;28;20083;-65
2022/04/16 13:07:00;;;;;;;8.85;5.40;;;;;;;25.91;47.28;99762.72;5033064;28;20505;-66
2022/04/16 13:09:25;;;;;;;10.20;5.20;;;;;;;25.28;47.77;99757.31;5033079;28;20044;-65
2022/04/16 13:11:53;;;;;;;7.50;4.88;;;;;;;25.52;47.57;99738.63;5031563;28;20068;-66
2022/04/16 13:14:19;;;;;;;22.42;14.18;;;;;;;25.65;49.30;99755.56;5033214;28;20072;-66
2022/04/16 13:16:45;;;;;;;14.75;8.63;;;;;;;25.15;49.11;99724.75;5031591;28;20444;-66
2022/04/16 13:19:12;;;;;;;8.70;5.10;;;;;;;24.41;48.98;99739.31;5032669;28;20473;-71
2022/04/16 13:21:38;;;;;;;9.98;4.93;;;;;;;24.98;49.57;99715.09;5033092;28;20422;-66
2022/04/16 13:24:04;;;;;;;9.00;4.90;;;;;;;24.43;50.02;99750.41;5033170;28;20025;-65
2022/04/16 13:26:30;;;;;;;11.43;5.60;;;;;;;25.09;50.44;99753.94;5032637;28;20036;-66
2022/04/16 13:28:55;;;;;;;8.30;5.72;;;;;;;24.84;50.77;99760.53;5032710;28;20025;-66
2022/04/16 13:31:21;;;;;;;13.30;5.60;;;;;;;25.25;50.60;99757.59;5064044;28;20120;-66
2022/04/16 13:33:47;;;;;;;6.93;5.00;;;;;;;24.30;50.77;99744.66;5032360;28;20029;-65
2022/04/16 13:36:12;;;;;;;7.30;4.95;;;;;;;24.03;50.77;99719.31;5032681;28;20060;-66
2022/04/16 13:38:37;;;;;;;13.95;7.22;;;;;;;24.53;50.54;99743.41;5032538;28;20128;-66
2022/04/16 13:43:46;;;;;;;8.50;5.13;;;;;;;24.20;51.03;99743.81;5032470;28;20088;-66
2022/04/16 13:46:12;;;;;;;7.93;5.07;;;;;;;23.96;50.98;99712.97;5032248;28;20120;-65
2022/04/16 13:48:37;;;;;;;8.25;5.35;;;;;;;23.96;50.48;99708.63;5031077;28;20017;-65
2022/04/16 13:51:03;;;;;;;7.05;4.80;;;;;;;23.62;50.01;99701.28;5063909;28;20037;-65
2022/04/16 13:53:28;;;;;;;8.77;4.90;;;;;;;24.08;49.76;99735.31;5032089;28;20087;-66
2022/04/16 13:55:54;;;;;;;7.68;4.85;;;;;;;23.91;49.84;99751.50;5032360;28;20125;-66
2022/04/16 13:58:19;;;;;;;8.25;5.10;;;;;;;24.49;49.65;99739.44;5031732;28;20483;-66
2022/04/16 14:00:45;;;;;;;11.60;5.20;;;;;;;24.04;49.28;99677.63;5031747;28;20033;-66
2022/04/16 14:03:10;;;;;;;9.15;5.35;;;;;;;24.15;49.26;99697.44;5032379;28;20407;-66
2022/04/16 14:05:45;;;;;;;10.13;4.85;;;;;;;24.02;48.57;99695.13;5032041;28;20056;-66
2022/04/16 14:08:16;;;;;;;9.63;5.00;;;;;;;24.25;48.78;99739.03;5030890;28;20127;-65
2022/04/16 14:10:42;;;;;;;9.55;5.30;;;;;;;23.99;48.34;99697.94;5031668;28;20057;-66
2022/04/16 14:13:10;;;;;;;7.80;5.13;;;;;;;24.21;48.17;99725.50;5031727;28;20077;-66
2022/04/16 14:15:37;;;;;;;5.72;4.78;;;;;;;23.96;48.66;99684.41;5029571;28;20025;-66
2022/04/16 14:18:04;;;;;;;10.77;4.72;;;;;;;23.84;48.54;99675.91;5030461;28;20534;-66
2022/04/16 14:20:30;;;;;;;9.07;4.82;;;;;;;23.99;48.92;99736.09;5031840;28;20029;-66
2022/04/16 14:22:56;;;;;;;5.32;4.65;;;;;;;24.08;48.91;99707.56;5030303;28;20040;-66
2022/04/16 14:25:22;;;;;;;7.90;5.38;;;;;;;24.06;49.14;99682.69;5030455;28;20029;-67
2022/04/16 14:27:48;;;;;;;8.73;5.57;;;;;;;23.87;49.70;99695.59;5031582;28;20029;-67
2022/04/16 14:30:13;;;;;;;9.65;5.70;;;;;;;24.16;49.86;99727.69;5031516;28;20055;-66
2022/04/16 14:32:39;;;;;;;8.38;5.20;;;;;;;23.64;49.57;99700.19;5029905;28;20057;-66
2022/04/16 14:35:05;;;;;;;8.15;5.07;;;;;;;23.70;49.88;99727.41;5031910;28;20095;-67
2022/04/16 14:37:31;;;;;;;10.35;5.43;;;;;;;23.55;49.47;99731.31;5029937;28;20470;-66
2022/04/16 14:39:56;;;;;;;9.73;5.10;;;;;;;23.84;49.64;99735.66;5031315;28;20029;-66
2022/04/16 14:42:22;;;;;;;8.00;5.18;;;;;;;23.42;49.76;99677.03;5031057;28;20029;-66
2022/04/16 14:44:52;;;;;;;6.53;5.00;;;;;;;23.47;49.29;99685.25;5031502;28;20029;-67
2022/04/16 14:47:19;;;;;;;6.28;5.15;;;;;;;23.75;49.71;99694.09;5031392;28;20083;-67
2022/04/16 14:49:45;;;;;;;7.97;5.50;;;;;;;23.53;50.08;99689.91;5030164;28;20462;-66
2022/04/16 14:52:11;;;;;;;8.68;5.28;;;;;;;23.78;50.73;99719.78;5031522;28;20029;-66
2022/04/16 14:54:37;;;;;;;8.68;5.07;;;;;;;23.54;50.85;99681.16;5031331;28;20060;-66
2022/04/16 14:57:03;;;;;;;8.95;5.00;;;;;;;23.44;50.25;99676.88;5030979;28;20051;-66
2022/04/16 14:59:28;;;;;;;8.70;5.25;;;;;;;23.42;51.11;99681.41;5029718;28;20043;-67
2022/04/16 15:01:54;;;;;;;9.38;5.32;;;;;;;23.33;50.74;99677.84;5031107;28;20173;-66
2022/04/16 15:04:19;;;;;;;6.85;5.28;;;;;;;23.77;50.19;99724.13;5031027;28;20028;-66
2022/04/16 15:06:46;;;;;;;13.48;9.90;;;;;;;23.44;50.52;99637.97;5031120;28;20037;-66
2022/04/16 15:09:12;;;;;;;6.50;5.90;;;;;;;23.81;50.27;99709.13;5029570;28;20550;-66
2022/04/16 15:11:37;;;;;;;10.90;5.57;;;;;;;23.50;53.83;99718.72;5030655;28;20032;-68
2022/04/16 15:14:03;;;;;;;10.43;5.45;;;;;;;23.36;55.58;99710.47;5030847;28;20506;-66
2022/04/16 15:16:28;;;;;;;10.75;5.72;;;;;;;23.38;55.47;99724.13;5030957;28;20025;-67